Time;durP1;ratioP1;P1;durP2;ratioP2;P2;SDS_P1;SDS_P2;PMS_P1;PMS_P2;Temp;Humidity;BMP_temperature;BMP_pressure;BME280_temperature;BME280_humidity;BME280_pressure;Samples;Min_cycle;Max_cycle;Signal;HPM_P1;HPM_P2
2023/08/07 00:01:58;;;;;;;2.80;2.50;;;;;;;15.57;100.00;96222.56;109809;1247;58148;-68
2023/08/07 00:04:30;;;;;;;3.10;2.10;;;;;;;15.49;100.00;96227.81;109732;1245;58072;-68
2023/08/07 00:07:02;;;;;;;3.20;2.30;;;;;;;15.42;100.00;96233.00;109734;1246;69642;-69
2023/08/07 00:09:33;;;;;;;2.20;1.60;;;;;;;15.24;100.00;96230.47;109711;1246;69269;-70
2023/08/07 00:12:05;;;;;;;1.70;1.60;;;;;;;15.01;100.00;96236.67;109793;1244;68426;-70
2023/08/07 00:14:35;;;;;;;2.00;1.50;;;;;;;14.85;100.00;96235.92;109730;1245;58240;-68
2023/08/07 00:17:06;;;;;;;3.30;2.00;;;;;;;14.80;100.00;96233.84;109745;1248;58451;-70
2023/08/07 00:19:36;;;;;;;2.80;1.90;;;;;;;14.73;100.00;96244.77;109816;1246;69258;-71
2023/08/07 00:22:07;;;;;;;2.70;2.00;;;;;;;14.67;100.00;96246.97;109792;1245;69281;-69
2023/08/07 00:24:39;;;;;;;3.00;2.00;;;;;;;14.65;100.00;96252.30;109773;1248;69620;-69
2023/08/07 00:27:17;;;;;;;3.40;1.90;;;;;;;14.66;100.00;96258.36;109871;1247;58073;-68
2023/08/07 00:29:55;;;;;;;3.50;2.10;;;;;;;14.59;100.00;96260.12;109793;1247;58091;-69
2023/08/07 00:32:25;;;;;;;2.90;2.30;;;;;;;14.58;100.00;96254.98;109797;1247;69267;-68
2023/08/07 00:34:56;;;;;;;3.10;2.40;;;;;;;14.60;100.00;96261.80;109797;1247;68330;-68
2023/08/07 00:37:26;;;;;;;3.90;2.50;;;;;;;14.54;100.00;96264.39;109926;1244;69316;-68
2023/08/07 00:39:56;;;;;;;3.20;2.50;;;;;;;14.47;100.00;96263.36;109987;1244;58120;-68
2023/08/07 00:42:26;;;;;;;3.60;2.90;;;;;;;14.43;100.00;96265.55;109886;1246;58115;-69
2023/08/07 00:44:57;;;;;;;3.40;2.60;;;;;;;14.39;100.00;96261.89;110019;1244;70352;-69
2023/08/07 00:47:29;;;;;;;3.00;2.40;;;;;;;14.43;100.00;96257.30;109854;1244;68430;-69
2023/08/07 00:50:03;;;;;;;2.80;2.10;;;;;;;14.46;100.00;96257.93;109876;1245;69136;-68
2023/08/07 00:52:33;;;;;;;2.70;1.80;;;;;;;14.52;100.00;96259.23;109760;1245;58089;-69
2023/08/07 00:55:05;;;;;;;2.70;2.20;;;;;;;14.59;100.00;96270.28;109892;1248;58048;-69
2023/08/07 00:57:35;;;;;;;2.40;2.10;;;;;;;14.57;100.00;96273.84;110044;1245;69116;-70
2023/08/07 01:00:07;;;;;;;1.70;1.60;;;;;;;14.55;100.00;96274.10;109934;1243;69412;-69
2023/08/07 01:02:38;;;;;;;4.10;1.90;;;;;;;14.62;100.00;96273.35;109810;1246;68768;-68
2023/08/07 01:05:09;;;;;;;1.80;1.70;;;;;;;14.66;100.00;96280.34;109864;1247;58094;-70
2023/08/07 01:07:42;;;;;;;1.90;1.70;;;;;;;14.68;100.00;96280.14;110039;1244;58078;-69
2023/08/07 01:10:14;;;;;;;1.80;1.70;;;;;;;14.67;100.00;96282.42;110059;1244;69643;-69
2023/08/07 01:12:58;;;;;;;2.60;1.70;;;;;;;14.66;100.00;96283.35;109851;1245;69102;-69
2023/08/07 01:15:33;;;;;;;2.50;1.90;;;;;;;14.62;100.00;96284.85;109883;1244;68740;-68
2023/08/07 01:18:08;;;;;;;2.80;2.40;;;;;;;14.63;100.00;96288.79;109992;1246;58119;-70
2023/08/07 01:20:45;;;;;;;2.70;2.10;;;;;;;14.63;100.00;96288.92;109939;1247;58094;-69
2023/08/07 01:23:19;;;;;;;1.90;1.70;;;;;;;14.63;100.00;96291.75;109990;1244;69785;-70
2023/08/07 01:25:52;;;;;;;3.30;2.30;;;;;;;14.62;100.00;96294.33;110064;1244;68312;-70
2023/08/07 01:28:33;;;;;;;2.80;2.00;;;;;;;14.63;100.00;96294.35;109888;1244;69307;-70
2023/08/07 01:31:15;;;;;;;1.90;1.60;;;;;;;14.68;100.00;96297.23;109858;1245;58062;-69
2023/08/07 01:33:59;;;;;;;3.00;1.90;;;;;;;14.68;100.00;96305.03;110050;1246;58075;-69
2023/08/07 01:36:33;;;;;;;2.50;1.80;;;;;;;14.71;100.00;96306.85;110033;1247;68917;-69
2023/08/07 01:39:09;;;;;;;2.10;1.60;;;;;;;14.73;100.00;96309.98;109825;1245;69616;-70
2023/08/07 01:41:41;;;;;;;2.40;1.40;;;;;;;14.75;100.00;96311.56;109811;1247;69275;-70
2023/08/07 01:44:14;;;;;;;2.30;2.00;;;;;;;14.75;100.00;96316.23;109906;1244;58097;-70
2023/08/07 01:46:50;;;;;;;2.10;1.70;;;;;;;14.76;100.00;96314.05;109896;1244;58091;-69
2023/08/07 01:49:26;;;;;;;2.40;1.60;;;;;;;14.76;100.00;96319.35;110037;1244;68993;-70
2023/08/07 01:51:56;;;;;;;2.00;1.70;;;;;;;14.75;100.00;96319.58;110030;1243;68571;-68
2023/08/07 01:54:26;;;;;;;;;;;;;;;14.75;100.00;96318.56;109975;1244;68562;-69
2023/08/07 01:56:58;;;;;;;2.00;1.60;;;;;;;14.73;100.00;96318.23;109849;1245;58051;-70
2023/08/07 01:59:30;;;;;;;2.30;1.90;;;;;;;14.72;100.00;96321.80;109767;1247;58063;-69
2023/08/07 02:02:04;;;;;;;4.30;1.70;;;;;;;14.72;100.00;96317.27;110055;1244;68852;-69
2023/08/07 02:04:34;;;;;;;1.90;1.60;;;;;;;14.71;100.00;96316.67;109831;1247;69298;-69
2023/08/07 02:07:05;;;;;;;1.80;1.50;;;;;;;14.70;100.00;96318.85;109967;1246;68509;-70
2023/08/07 02:09:36;;;;;;;3.10;2.00;;;;;;;14.68;100.00;96317.76;109828;1244;58852;-69
2023/08/07 02:12:12;;;;;;;3.20;1.80;;;;;;;14.66;100.00;96317.57;109755;1243;58885;-70
2023/08/07 02:14:46;;;;;;;2.50;2.20;;;;;;;14.65;100.00;96320.48;109832;1243;70750;-69
2023/08/07 02:17:22;;;;;;;1.90;1.60;;;;;;;14.63;100.00;96321.90;109876;1246;69623;-69
2023/08/07 02:19:54;;;;;;;2.40;1.70;;;;;;;14.63;100.00;96316.02;109846;1243;68555;-70
2023/08/07 02:22:29;;;;;;;1.90;1.60;;;;;;;14.60;100.00;96317.13;109964;1244;58881;-70
2023/08/07 02:25:07;;;;;;;1.70;1.50;;;;;;;14.59;100.00;96321.49;109806;1246;58938;-70
2023/08/07 02:27:47;;;;;;;1.90;1.60;;;;;;;14.57;100.00;96323.17;109898;1245;70504;-70
2023/08/07 02:30:25;;;;;;;3.70;2.00;;;;;;;14.53;100.00;96328.27;109893;1245;69198;-69
2023/08/07 02:33:01;;;;;;;2.00;1.70;;;;;;;14.48;100.00;96331.90;110033;1245;68295;-69
2023/08/07 02:35:35;;;;;;;2.30;1.80;;;;;;;14.42;100.00;96339.20;109863;1244;58998;-70
2023/08/07 02:38:06;;;;;;;2.00;1.70;;;;;;;14.40;100.00;96338.20;109800;1244;58909;-69
2023/08/07 02:40:40;;;;;;;2.80;2.10;;;;;;;14.37;100.00;96341.35;109890;1244;69673;-69
2023/08/07 02:43:16;;;;;;;2.60;2.10;;;;;;;14.32;100.00;96344.30;109916;1244;68713;-70
2023/08/07 02:45:47;;;;;;;2.70;2.20;;;;;;;14.24;100.00;96343.39;109905;1243;69146;-69
2023/08/07 02:48:18;;;;;;;3.60;1.90;;;;;;;14.20;100.00;96344.80;109787;1247;58883;-70
2023/08/07 02:50:51;;;;;;;2.50;2.20;;;;;;;14.21;100.00;96345.96;109854;1247;58933;-70
2023/08/07 02:53:27;;;;;;;3.30;2.20;;;;;;;14.15;100.00;96346.02;110018;1244;69731;-70
2023/08/07 02:56:01;;;;;;;2.60;1.80;;;;;;;14.14;100.00;96351.08;110084;1245;68415;-70
2023/08/07 02:58:39;;;;;;;2.30;1.80;;;;;;;14.14;100.00;96358.64;109911;1243;69300;-69
2023/08/07 03:01:11;;;;;;;3.20;1.80;;;;;;;14.09;100.00;96366.48;109999;1245;58894;-68
2023/08/07 03:03:42;;;;;;;2.50;1.60;;;;;;;14.08;100.00;96370.11;109818;1244;58858;-70
2023/08/07 03:06:14;;;;;;;2.40;1.90;;;;;;;14.06;100.00;96368.09;109780;1243;70582;-70
2023/08/07 03:08:45;;;;;;;2.00;1.80;;;;;;;14.05;100.00;96366.61;109900;1246;67344;-69
2023/08/07 03:11:20;;;;;;;4.20;2.20;;;;;;;14.02;100.00;96373.17;110020;1243;69291;-68
2023/08/07 03:13:51;;;;;;;2.60;1.90;;;;;;;14.01;100.00;96369.95;109945;1245;58941;-69
2023/08/07 03:16:21;;;;;;;4.40;2.30;;;;;;;14.01;100.00;96372.41;109853;1245;58859;-68
2023/08/07 03:18:52;;;;;;;3.50;2.30;;;;;;;13.99;100.00;96376.39;109824;1246;70598;-70
2023/08/07 03:21:23;;;;;;;3.70;2.60;;;;;;;13.98;100.00;96375.16;109897;1244;68577;-69
2023/08/07 03:23:55;;;;;;;3.00;2.50;;;;;;;13.95;100.00;96380.59;110014;1247;68341;-71
2023/08/07 03:26:26;;;;;;;3.20;2.20;;;;;;;13.94;100.00;96388.21;109886;1243;58968;-69
2023/08/07 03:28:58;;;;;;;2.80;2.30;;;;;;;13.87;100.00;96392.55;109847;1247;58871;-69
2023/08/07 03:31:30;;;;;;;3.40;2.50;;;;;;;13.86;100.00;96399.83;109930;1244;70569;-68
2023/08/07 03:34:02;;;;;;;2.90;2.40;;;;;;;13.86;100.00;96400.91;109968;1245;68505;-70
2023/08/07 03:36:33;;;;;;;3.90;2.50;;;;;;;13.86;100.00;96404.27;109869;1247;68327;-69
2023/08/07 03:39:04;;;;;;;3.20;1.90;;;;;;;13.84;100.00;96403.96;110097;1245;58994;-69
2023/08/07 03:41:35;;;;;;;5.20;2.70;;;;;;;13.86;100.00;96403.08;110073;1245;58825;-69
2023/08/07 03:44:05;;;;;;;4.90;2.60;;;;;;;13.87;100.00;96406.96;110027;1246;71076;-69
2023/08/07 03:46:36;;;;;;;2.90;2.50;;;;;;;13.84;100.00;96409.17;109926;1244;67671;-68
2023/08/07 03:49:06;;;;;;;4.20;2.40;;;;;;;13.84;100.00;96410.63;109774;1247;69206;-69
2023/08/07 03:51:37;;;;;;;3.00;2.50;;;;;;;13.83;100.00;96409.67;109763;1246;58932;-68
2023/08/07 03:54:08;;;;;;;3.20;2.20;;;;;;;13.82;100.00;96409.56;109962;1244;58887;-69
2023/08/07 03:56:38;;;;;;;3.80;2.10;;;;;;;13.81;100.00;96409.33;109967;1248;70618;-70
2023/08/07 03:59:08;;;;;;;3.60;2.30;;;;;;;13.82;100.00;96408.15;109856;1244;69094;-69
2023/08/07 04:01:39;;;;;;;2.50;1.90;;;;;;;13.86;100.00;96408.23;110026;1245;68375;-70
2023/08/07 04:04:09;;;;;;;3.10;2.00;;;;;;;13.91;100.00;96407.80;109944;1245;58895;-70
2023/08/07 04:06:41;;;;;;;3.40;2.10;;;;;;;13.92;100.00;96410.08;109751;1244;59214;-70
2023/08/07 04:09:12;;;;;;;3.10;2.30;;;;;;;13.95;100.00;96409.83;110052;1243;70995;-70
2023/08/07 04:11:43;;;;;;;2.50;2.30;;;;;;;13.94;100.00;96411.13;109861;1246;69103;-70
2023/08/07 04:14:14;;;;;;;2.30;2.00;;;;;;;13.93;100.00;96414.05;109772;1244;69269;-69
2023/08/07 04:16:44;;;;;;;3.40;2.50;;;;;;;13.93;100.00;96418.30;109756;1247;58944;-69
2023/08/07 04:19:14;;;;;;;3.20;2.50;;;;;;;13.92;100.00;96418.71;110055;1245;58888;-69
2023/08/07 04:21:43;;;;;;;3.50;2.40;;;;;;;13.93;100.00;96423.34;110044;1248;70625;-69
2023/08/07 04:24:13;;;;;;;2.70;2.40;;;;;;;13.94;100.00;96429.71;109925;1244;69304;-69
2023/08/07 04:26:44;;;;;;;3.10;2.40;;;;;;;13.93;100.00;96433.63;109865;1243;69119;-69
2023/08/07 04:29:15;;;;;;;2.90;2.10;;;;;;;13.97;100.00;96434.67;109874;1243;58895;-70
2023/08/07 04:31:45;;;;;;;3.00;2.50;;;;;;;14.01;100.00;96435.27;109993;1245;58876;-70
2023/08/07 04:34:16;;;;;;;4.80;2.70;;;;;;;14.07;100.00;96433.98;110105;1243;70895;-71
2023/08/07 04:36:45;;;;;;;4.60;3.00;;;;;;;14.08;100.00;96433.20;110016;1247;68891;-70
2023/08/07 04:39:14;;;;;;;5.40;2.60;;;;;;;14.06;100.00;96434.02;109918;1245;68348;-71
2023/08/07 04:41:43;;;;;;;4.90;2.90;;;;;;;14.11;100.00;96441.23;109811;1242;58913;-70
2023/08/07 04:44:13;;;;;;;3.40;2.80;;;;;;;14.12;100.00;96442.55;109836;1247;58877;-70
2023/08/07 04:46:42;;;;;;;3.20;2.60;;;;;;;14.15;100.00;96443.98;109981;1245;70443;-70
2023/08/07 04:49:12;;;;;;;3.60;2.50;;;;;;;14.15;100.00;96446.85;110042;1246;69316;-71
2023/08/07 04:51:41;;;;;;;;;;;;;;;14.15;100.00;96447.83;109939;1246;68418;-71
2023/08/07 04:54:11;;;;;;;4.00;2.60;;;;;;;14.17;100.00;96445.21;109857;1250;58885;-71
2023/08/07 04:56:42;;;;;;;3.00;2.50;;;;;;;14.16;100.00;96448.66;109889;1244;58867;-70
2023/08/07 04:59:11;;;;;;;3.40;2.30;;;;;;;14.19;100.00;96453.27;109966;1244;70599;-71
2023/08/07 05:01:41;;;;;;;3.60;2.60;;;;;;;14.19;100.00;96456.55;109911;1244;69246;-71
2023/08/07 05:04:10;;;;;;;3.50;2.40;;;;;;;14.27;100.00;96456.59;110048;1243;69160;-70
2023/08/07 05:06:40;;;;;;;3.50;2.30;;;;;;;14.29;100.00;96460.94;109905;1248;58900;-70
2023/08/07 05:09:10;;;;;;;3.80;2.70;;;;;;;14.36;100.00;96465.30;109949;1245;58962;-71
2023/08/07 05:11:39;;;;;;;3.00;2.00;;;;;;;14.36;100.00;96465.33;110020;1243;70578;-71
2023/08/07 05:14:09;;;;;;;2.70;2.50;;;;;;;14.44;100.00;96467.11;109865;1246;69192;-69
2023/08/07 05:16:38;;;;;;;2.80;2.20;;;;;;;14.47;100.00;96465.56;109931;1248;70256;-70
2023/08/07 05:19:08;;;;;;;2.70;2.40;;;;;;;14.55;100.00;96465.34;109948;1246;58861;-71
2023/08/07 05:21:37;;;;;;;2.80;2.30;;;;;;;14.68;100.00;96460.29;110055;1244;58876;-70
2023/08/07 05:24:07;;;;;;;3.10;2.40;;;;;;;14.84;100.00;96459.17;109806;1246;71604;-69
2023/08/07 05:26:36;;;;;;;3.50;2.40;;;;;;;15.14;100.00;96460.16;109788;1247;69205;-70
2023/08/07 05:29:06;;;;;;;3.40;2.40;;;;;;;15.50;100.00;96463.65;110070;1246;69650;-70
2023/08/07 05:31:36;;;;;;;3.30;2.80;;;;;;;15.78;100.00;96468.02;110046;1245;58900;-69
2023/08/07 05:34:07;;;;;;;3.70;2.40;;;;;;;15.97;100.00;96471.58;109921;1246;58879;-69
2023/08/07 05:36:37;;;;;;;2.90;2.20;;;;;;;16.14;100.00;96474.34;109807;1247;69907;-69
2023/08/07 05:39:08;;;;;;;3.30;2.30;;;;;;;16.19;100.00;96477.91;109990;1246;69264;-70
2023/08/07 05:41:38;;;;;;;3.00;1.90;;;;;;;16.17;100.00;96484.69;110017;1248;68564;-69
2023/08/07 05:44:07;;;;;;;3.50;2.20;;;;;;;16.37;100.00;96485.81;110052;1244;58892;-69
2023/08/07 05:46:37;;;;;;;2.80;2.10;;;;;;;16.40;100.00;96485.70;109810;1244;58900;-70
2023/08/07 05:49:07;;;;;;;3.10;2.10;;;;;;;16.55;100.00;96490.04;109939;1248;69915;-70
2023/08/07 05:51:37;;;;;;;2.90;2.30;;;;;;;16.70;100.00;96489.42;109829;1248;69612;-70
2023/08/07 05:54:07;;;;;;;2.60;1.80;;;;;;;17.10;100.00;96485.76;110012;1246;69932;-70
2023/08/07 05:56:37;;;;;;;2.70;1.90;;;;;;;17.50;100.00;96484.16;110009;1245;58889;-69
2023/08/07 05:59:07;;;;;;;2.40;1.80;;;;;;;17.67;100.00;96483.73;109852;1248;58893;-68
2023/08/07 06:01:36;;;;;;;2.90;1.90;;;;;;;17.85;100.00;96484.19;109835;1245;70565;-68
2023/08/07 06:04:06;;;;;;;1.90;1.60;;;;;;;18.21;100.00;96492.10;109860;1248;69112;-70
2023/08/07 06:06:37;;;;;;;2.20;1.80;;;;;;;18.39;99.92;96493.17;109893;1245;69100;-69
2023/08/07 06:09:06;;;;;;;2.00;1.50;;;;;;;18.46;97.53;96494.77;110066;1245;58873;-70
2023/08/07 06:11:36;;;;;;;2.40;1.50;;;;;;;18.77;99.76;96499.89;110171;1245;58858;-71
2023/08/07 06:14:04;;;;;;;2.10;1.50;;;;;;;18.80;96.31;96499.31;109927;1245;70060;-70
2023/08/07 06:16:34;;;;;;;2.20;1.60;;;;;;;18.55;94.62;96498.98;110207;1240;69096;-70
2023/08/07 06:19:04;;;;;;;2.30;1.50;;;;;;;18.65;91.83;96496.21;110120;1240;69865;-69
2023/08/07 06:21:54;;;;;;;1.80;1.40;;;;;;;19.20;93.73;96494.98;110152;1240;58846;-70
2023/08/07 06:24:25;;;;;;;2.70;1.40;;;;;;;19.98;94.29;96494.23;110202;1241;58874;-70
2023/08/07 06:26:53;;;;;;;1.60;1.30;;;;;;;20.35;84.29;96500.15;110156;1244;70562;-69
2023/08/07 06:29:23;;;;;;;2.40;1.40;;;;;;;20.38;82.00;96496.33;110128;1241;69844;-69
2023/08/07 06:31:52;;;;;;;1.70;1.10;;;;;;;20.41;81.62;96502.30;110208;1244;69233;-70
2023/08/07 06:34:22;;;;;;;1.50;1.30;;;;;;;20.11;80.79;96503.71;110235;1240;58796;-70
2023/08/07 06:36:50;;;;;;;;;;;;;;;20.28;81.85;96507.39;110246;1240;58926;-71
2023/08/07 06:39:19;;;;;;;2.20;1.30;;;;;;;20.16;81.13;96515.10;110192;1241;70662;-70
2023/08/07 06:41:48;;;;;;;1.80;1.40;;;;;;;20.14;82.56;96516.77;110601;1243;69829;-69
2023/08/07 06:44:18;;;;;;;;;;;;;;;20.14;81.97;96514.73;110741;1243;69383;-69
2023/08/07 06:46:47;;;;;;;1.90;1.20;;;;;;;19.94;82.65;96509.72;110725;1242;58846;-67
2023/08/07 06:49:16;;;;;;;;;;;;;;;19.91;82.76;96511.86;110291;1243;58941;-69
2023/08/07 06:51:45;;;;;;;2.10;1.40;;;;;;;19.93;82.18;96516.19;110205;1240;69830;-71
2023/08/07 06:54:14;;;;;;;2.00;1.20;;;;;;;19.67;82.71;96519.62;110190;1242;68818;-70
2023/08/07 06:56:44;;;;;;;1.30;1.20;;;;;;;20.01;83.94;96521.70;110160;1240;70253;-70
2023/08/07 06:59:13;;;;;;;1.90;1.40;;;;;;;20.34;82.89;96525.06;110208;1240;58951;-69
2023/08/07 07:01:44;;;;;;;2.00;1.20;;;;;;;20.07;78.94;96522.75;110191;1243;58868;-70
2023/08/07 07:04:13;;;;;;;1.60;1.10;;;;;;;19.88;78.82;96526.43;110206;1240;70976;-71
2023/08/07 07:06:43;;;;;;;1.80;1.20;;;;;;;20.15;78.86;96530.54;110213;1241;69188;-70
2023/08/07 07:09:15;;;;;;;1.20;1.10;;;;;;;20.43;77.53;96538.23;110166;1240;69147;-70
2023/08/07 07:11:45;;;;;;;1.70;1.10;;;;;;;20.83;75.57;96542.20;110153;1245;58996;-68
2023/08/07 07:14:13;;;;;;;1.50;1.00;;;;;;;21.16;75.89;96542.20;110089;1243;58904;-69
2023/08/07 07:16:43;;;;;;;1.30;0.90;;;;;;;20.93;73.75;96544.91;110160;1242;70801;-69
2023/08/07 07:19:12;;;;;;;1.80;1.10;;;;;;;20.11;72.93;96546.45;110156;1240;68557;-69
2023/08/07 07:21:42;;;;;;;;;;;;;;;19.46;72.61;96549.95;110117;1241;68498;-68
2023/08/07 07:24:11;;;;;;;1.60;1.10;;;;;;;20.13;74.12;96547.81;110170;1240;58927;-69
2023/08/07 07:26:40;;;;;;;2.10;1.00;;;;;;;20.70;70.27;96549.30;110113;1244;59284;-68
2023/08/07 07:29:09;;;;;;;1.10;1.00;;;;;;;20.90;68.95;96550.62;110100;1240;71292;-69
2023/08/07 07:31:38;;;;;;;1.40;0.90;;;;;;;20.37;67.93;96552.77;110182;1242;69355;-67
2023/08/07 07:34:07;;;;;;;2.20;0.90;;;;;;;20.68;68.39;96554.90;110142;1242;69288;-69
2023/08/07 07:36:37;;;;;;;1.30;1.00;;;;;;;21.41;67.54;96561.63;110116;1243;58890;-69
2023/08/07 07:39:06;;;;;;;1.20;0.90;;;;;;;22.12;66.36;96559.11;110191;1244;58979;-68
2023/08/07 07:41:35;;;;;;;1.50;0.80;;;;;;;22.92;62.39;96563.77;110180;1242;70723;-70
2023/08/07 07:44:04;;;;;;;1.00;0.90;;;;;;;22.49;56.40;96558.05;110214;1241;68399;-68
2023/08/07 07:46:34;;;;;;;0.70;0.70;;;;;;;21.84;56.76;96559.31;110140;1242;69251;-67
2023/08/07 07:49:04;;;;;;;;;;;;;;;21.46;60.33;96564.30;110143;1242;58901;-67
2023/08/07 07:51:35;;;;;;;0.80;0.70;;;;;;;21.59;60.20;96567.95;110148;1242;58875;-67
2023/08/07 07:54:04;;;;;;;1.40;0.80;;;;;;;21.32;60.05;96574.08;110152;1245;70689;-67
2023/08/07 07:56:36;;;;;;;1.50;0.90;;;;;;;21.46;62.67;96577.29;110176;1242;69706;-68
2023/08/07 07:59:05;;;;;;;2.90;0.90;;;;;;;21.81;62.59;96573.17;110164;1242;69571;-67
2023/08/07 08:01:37;;;;;;;1.40;0.80;;;;;;;22.70;62.75;96573.16;110098;1243;58876;-69
2023/08/07 08:04:06;;;;;;;1.10;0.70;;;;;;;23.48;59.34;96571.85;110163;1242;58928;-68
2023/08/07 08:06:36;;;;;;;0.90;0.80;;;;;;;23.18;55.63;96574.11;110177;1243;70190;-67
2023/08/07 08:09:05;;;;;;;0.90;0.90;;;;;;;23.11;56.87;96570.21;110153;1243;68719;-68
2023/08/07 08:11:34;;;;;;;;;;;;;;;22.60;58.40;96574.73;110150;1242;69915;-69
2023/08/07 08:14:04;;;;;;;1.40;0.90;;;;;;;22.76;59.41;96580.58;110128;1244;58873;-67
2023/08/07 08:16:33;;;;;;;0.70;0.50;;;;;;;22.33;58.56;96582.42;110107;1242;58825;-68
2023/08/07 08:19:04;;;;;;;1.20;0.60;;;;;;;22.60;58.94;96581.96;110144;1245;70668;-67
2023/08/07 08:21:34;;;;;;;;;;;;;;;22.11;57.56;96588.40;110122;1245;69091;-67
2023/08/07 08:24:04;;;;;;;1.20;0.80;;;;;;;21.67;58.07;96595.50;110105;1250;69286;-67
2023/08/07 08:26:33;;;;;;;1.00;0.80;;;;;;;21.30;60.06;96593.45;110125;1242;58938;-69
2023/08/07 08:29:02;;;;;;;0.80;0.60;;;;;;;21.23;60.25;96588.78;110136;1243;58939;-67
2023/08/07 08:44:19;;;;;;;2.50;1.00;;;;;;;22.13;61.57;96597.52;107469;1267;608975;-68
2023/08/07 08:46:53;;;;;;;1.70;1.00;;;;;;;21.77;61.25;96604.15;108959;1256;432254;-67
2023/08/07 08:49:30;;;;;;;1.00;0.70;;;;;;;21.67;62.65;96603.45;109366;1251;57633;-67
2023/08/07 08:52:01;;;;;;;0.70;0.70;;;;;;;21.47;64.06;96611.52;109300;1255;69004;-69
2023/08/07 08:54:30;;;;;;;1.40;0.80;;;;;;;21.38;64.52;96612.52;109341;1251;69231;-69
2023/08/07 08:57:00;;;;;;;1.80;1.10;;;;;;;21.24;65.59;96608.96;109314;1253;69258;-67
2023/08/07 08:59:29;;;;;;;0.70;0.70;;;;;;;21.11;66.67;96609.18;110475;1248;57661;-69
2023/08/07 09:01:58;;;;;;;2.40;1.00;;;;;;;21.02;64.86;96611.95;110545;1241;57670;-68
2023/08/07 09:04:27;;;;;;;0.80;0.60;;;;;;;21.14;66.27;96611.64;110487;1240;69005;-69
2023/08/07 09:06:57;;;;;;;1.90;0.80;;;;;;;21.16;65.96;96610.02;110470;1242;69131;-69
2023/08/07 09:09:27;;;;;;;1.10;0.70;;;;;;;21.30;66.14;96609.32;110469;1243;69844;-69
2023/08/07 09:11:58;;;;;;;0.60;0.60;;;;;;;21.40;66.90;96609.98;110473;1242;58093;-68
2023/08/07 09:14:31;;;;;;;0.80;0.70;;;;;;;21.76;68.15;96607.73;110506;1243;58102;-67
2023/08/07 09:17:01;;;;;;;1.10;1.00;;;;;;;22.24;66.18;96599.48;110519;1242;69770;-68
2023/08/07 09:19:33;;;;;;;0.90;0.80;;;;;;;22.45;61.12;96598.11;110529;1244;69243;-68
2023/08/07 09:22:02;;;;;;;1.10;0.80;;;;;;;22.85;63.15;96594.20;110450;1242;69337;-69
2023/08/07 09:24:32;;;;;;;0.50;0.50;;;;;;;22.80;58.43;96589.79;110416;1239;58517;-69
2023/08/07 09:27:01;;;;;;;0.50;0.50;;;;;;;22.38;54.91;96595.91;110370;1241;58095;-69
2023/08/07 09:29:31;;;;;;;1.20;0.70;;;;;;;21.92;55.27;96599.60;110536;1241;70345;-68
2023/08/07 09:32:13;;;;;;;0.80;0.60;;;;;;;21.60;57.78;96606.95;110559;1242;68843;-68
2023/08/07 09:34:43;;;;;;;0.60;0.60;;;;;;;21.19;57.24;96613.52;110487;1241;69452;-69
2023/08/07 09:37:12;;;;;;;0.90;0.60;;;;;;;21.07;59.53;96615.78;110413;1242;58134;-70
2023/08/07 09:39:41;;;;;;;0.50;0.50;;;;;;;20.91;59.37;96611.55;110439;1241;58017;-68
2023/08/07 09:42:15;;;;;;;1.50;0.50;;;;;;;20.69;60.24;96612.12;110567;1241;70341;-68
2023/08/07 09:44:48;;;;;;;0.40;0.40;;;;;;;20.76;61.08;96618.95;110438;1241;69856;-69
2023/08/07 09:47:19;;;;;;;0.60;0.50;;;;;;;20.78;60.96;96620.18;110456;1241;69557;-68
2023/08/07 09:49:54;;;;;;;0.50;0.50;;;;;;;20.65;60.41;96622.72;110398;1241;58065;-68
2023/08/07 09:52:26;;;;;;;1.90;0.50;;;;;;;20.77;61.16;96625.77;110534;1241;58072;-68
2023/08/07 09:54:57;;;;;;;0.90;0.50;;;;;;;20.77;60.40;96627.36;110414;1242;69727;-68
2023/08/07 09:57:27;;;;;;;0.50;0.50;;;;;;;20.96;59.10;96631.37;110323;1241;69277;-67
2023/08/07 09:59:56;;;;;;;1.00;0.50;;;;;;;21.60;57.58;96625.88;110330;1241;68519;-67
2023/08/07 10:02:25;;;;;;;0.50;0.40;;;;;;;22.53;56.05;96615.80;110357;1241;58080;-67
2023/08/07 10:04:55;;;;;;;0.90;0.40;;;;;;;22.93;53.59;96618.58;110360;1241;58114;-67
2023/08/07 10:07:24;;;;;;;0.60;0.50;;;;;;;22.92;51.63;96618.34;110318;1241;69852;-69
2023/08/07 10:09:54;;;;;;;1.70;0.50;;;;;;;22.78;51.85;96622.91;110352;1241;69146;-68
2023/08/07 10:12:23;;;;;;;2.10;0.50;;;;;;;22.18;52.45;96634.95;110433;1242;69999;-68
2023/08/07 10:14:54;;;;;;;1.50;0.70;;;;;;;21.97;53.51;96634.58;110388;1242;58069;-68
2023/08/07 10:17:23;;;;;;;1.00;0.50;;;;;;;21.28;55.60;96647.00;110315;1241;58121;-67
2023/08/07 10:19:52;;;;;;;1.00;0.50;;;;;;;20.93;56.07;96650.51;110300;1241;69772;-68
2023/08/07 10:22:26;;;;;;;1.10;0.70;;;;;;;20.67;57.77;96656.11;110326;1242;69056;-69
2023/08/07 10:25:00;;;;;;;0.80;0.40;;;;;;;20.39;57.89;96654.11;110294;1242;70054;-69
2023/08/07 10:27:36;;;;;;;1.90;0.70;;;;;;;20.35;57.88;96653.03;110442;1241;58132;-68
2023/08/07 10:30:09;;;;;;;0.80;0.50;;;;;;;20.46;58.30;96653.57;110421;1241;58097;-68
2023/08/07 10:32:38;;;;;;;0.90;0.40;;;;;;;20.49;57.81;96654.79;110353;1242;69757;-67
2023/08/07 10:35:08;;;;;;;0.70;0.40;;;;;;;21.04;56.15;96660.39;110345;1240;68446;-67
2023/08/07 10:37:37;;;;;;;;;;;;;;;21.52;54.34;96657.15;110347;1241;69286;-70
2023/08/07 10:40:11;;;;;;;0.30;0.30;;;;;;;22.14;52.56;96657.59;110405;1242;58201;-68
2023/08/07 10:42:52;;;;;;;0.90;0.50;;;;;;;22.42;51.62;96662.49;110350;1241;58121;-68
2023/08/07 10:45:23;;;;;;;0.50;0.50;;;;;;;22.33;51.44;96656.23;110308;1241;69945;-70
2023/08/07 10:48:01;;;;;;;0.60;0.40;;;;;;;22.35;51.91;96662.17;110341;1241;69236;-67
2023/08/07 10:50:35;;;;;;;0.80;0.40;;;;;;;22.39;52.96;96661.85;110365;1244;69370;-68
2023/08/07 10:53:05;;;;;;;0.80;0.40;;;;;;;23.21;52.47;96658.59;110454;1241;58067;-69
2023/08/07 10:55:48;;;;;;;1.00;0.50;;;;;;;23.78;51.51;96654.14;110376;1241;58109;-67
2023/08/07 10:58:34;;;;;;;0.40;0.40;;;;;;;24.27;49.01;96646.78;110285;1241;69283;-68
2023/08/07 11:01:34;;;;;;;1.30;0.30;;;;;;;24.67;47.36;96640.80;110314;1241;69551;-67
2023/08/07 11:04:12;;;;;;;0.70;0.50;;;;;;;24.48;46.47;96650.37;110292;1241;69361;-69
2023/08/07 11:06:44;;;;;;;0.60;0.40;;;;;;;24.31;45.37;96655.64;110337;1242;58076;-67
2023/08/07 11:09:13;;;;;;;0.60;0.40;;;;;;;24.05;46.24;96659.98;110397;1241;58118;-67
2023/08/07 11:11:44;;;;;;;;;;;;;;;24.28;44.87;96660.34;110399;1248;69748;-67
2023/08/07 11:14:18;;;;;;;0.70;0.50;;;;;;;23.60;45.74;96661.95;110370;1241;69155;-68
2023/08/07 11:16:48;;;;;;;1.80;0.50;;;;;;;24.03;45.73;96657.09;110352;1241;69103;-67
2023/08/07 11:19:19;;;;;;;0.30;0.30;;;;;;;23.83;46.04;96667.42;110329;1242;58124;-67
2023/08/07 11:21:48;;;;;;;1.10;0.40;;;;;;;24.41;45.79;96666.48;110323;1241;58098;-68
2023/08/07 11:24:20;;;;;;;0.70;0.30;;;;;;;24.57;44.25;96669.63;110309;1242;68087;-69
2023/08/07 11:26:50;;;;;;;0.40;0.40;;;;;;;23.96;44.90;96670.95;110369;1241;69198;-68
2023/08/07 11:29:20;;;;;;;0.50;0.40;;;;;;;23.65;45.57;96676.23;110279;1241;68709;-68
2023/08/07 11:31:49;;;;;;;;;;;;;;;23.92;45.21;96677.86;110370;1241;58146;-69
2023/08/07 11:34:20;;;;;;;1.00;0.30;;;;;;;23.76;45.70;96686.82;110320;1241;58064;-67
2023/08/07 11:36:49;;;;;;;0.50;0.40;;;;;;;23.56;46.32;96683.19;110312;1241;69596;-67
2023/08/07 11:39:19;;;;;;;0.50;0.50;;;;;;;23.62;46.74;96676.45;110400;1241;69672;-68
2023/08/07 11:41:53;;;;;;;0.40;0.30;;;;;;;23.11;47.72;96684.54;110405;1241;68532;-68
2023/08/07 11:44:23;;;;;;;0.30;0.30;;;;;;;23.27;46.97;96690.00;110345;1241;58087;-69
2023/08/07 11:46:57;;;;;;;0.20;0.20;;;;;;;23.26;47.08;96701.48;110373;1241;58081;-67
2023/08/07 11:49:27;;;;;;;0.70;0.50;;;;;;;23.26;48.51;96703.66;110423;1241;70329;-68
2023/08/07 11:51:57;;;;;;;0.60;0.50;;;;;;;23.40;50.91;96719.34;110394;1241;70178;-69
2023/08/07 11:54:26;;;;;;;;;;;;;;;23.30;51.79;96721.55;110332;1241;69829;-68
2023/08/07 11:56:55;;;;;;;0.60;0.50;;;;;;;23.11;52.50;96730.15;110247;1241;58105;-67